Waterloo, Wisconsin
Current Conditions -  °F | °C
As of 4:55 AM on Thursday 27 Nov 2014 (Local Time) from KRYV Reporting Station
Overcast Overcast  
Wind Chill: 12°   Ceiling: 2400
Heat Index: 21°   Visibility: 7mi
Dew Point: 19°   Wind: 8mph
Humidity: 93%   Direction: 310°NW
Pressure: 30.25"   Gusts: NA
Location:  43.18°N, 88.99°W
Report Text: KRYV 271055Z AUTO 31007KT 7SM OVC024 M06/M07 A3025 RMK AO2 T10601070
Loading
Personal Weather Stations






























Interactive Weather Map New forecast layout! Learn more

10-Day Weather Forecast

Advertisements
Track Severe Weather on mobile